Weather at Evanton Airfield [CLOSED]

Public forecast

Using degrees Celsius for public forecast. Weather courtesy of forecast.io.

Closest aviation weather report (METAR) to Evanton Airfield

Closest report is Inverness Airport, 11.2 nm (20.7 km) SE.

2024/05/24 00:20 (retrieved 23 minutes ago)

EGPE 240020Z AUTO VRB02KT 9999 OVC013/// 11/09 Q1014

Closest aviation forecast (TAF) to Evanton Airfield

Forecast is more than 6 hours old.

Closest forecast is RAF Waddington, 299.3 nm (554.3 km) SSE.

2024/05/23 15:54 (retrieved 9 hours ago)

TAF TAF EGXW 231642Z 2315/2409 CNL